Time;durP1;ratioP1;P1;durP2;ratioP2;P2;SDS_P1;SDS_P2;PMS_P1;PMS_P2;Temp;Humidity;BMP_temperature;BMP_pressure;BME280_temperature;BME280_humidity;BME280_pressure;Samples;Min_cycle;Max_cycle;Signal;HPM_P1;HPM_P2
2022/03/30 04:07:40;;;;;;;17.70;11.55;;;;;;;13.22;44.26;99267.81;5605154;31;79941;-56
2022/03/30 04:10:43;;;;;;;17.42;11.93;;;;;;;13.22;44.26;99267.81;5601261;31;34079;-56
2022/03/30 04:13:45;;;;;;;19.95;12.20;;;;;;;12.68;45.15;99274.50;5602445;31;33353;-56
2022/03/30 04:16:48;;;;;;;21.25;11.95;;;;;;;12.69;45.32;99270.72;5603273;31;33520;-56
2022/03/30 04:19:50;;;;;;;20.85;12.40;;;;;;;12.78;44.72;99270.69;5601714;31;33771;-57
2022/03/30 04:22:52;;;;;;;16.65;12.23;;;;;;;12.66;44.96;99284.00;5603166;31;33277;-57
2022/03/30 04:25:55;;;;;;;17.02;11.75;;;;;;;12.68;45.38;99277.19;5603265;31;33562;-56
2022/03/30 04:28:57;;;;;;;21.02;12.37;;;;;;;12.69;45.61;99276.09;5620000;31;34331;-57
2022/03/30 04:32:00;;;;;;;20.17;12.55;;;;;;;12.75;45.32;99281.28;5605300;31;33676;-57
2022/03/30 04:35:03;;;;;;;18.67;12.40;;;;;;;12.77;45.46;99281.75;5605135;31;34345;-57
2022/03/30 04:38:05;;;;;;;17.42;11.50;;;;;;;12.71;45.68;99283.81;5605768;31;33496;-56
2022/03/30 04:41:08;;;;;;;21.27;12.13;;;;;;;12.72;45.42;99282.72;5619532;31;33636;-57
2022/03/30 04:44:10;;;;;;;22.33;12.90;;;;;;;12.70;45.62;99290.31;5617585;31;33811;-57
2022/03/30 04:47:12;;;;;;;18.65;12.18;;;;;;;12.69;45.70;99294.91;5602484;31;33631;-57
2022/03/30 04:50:15;;;;;;;20.77;12.27;;;;;;;12.66;45.87;99292.06;5595127;31;33598;-57
2022/03/30 04:53:18;;;;;;;19.12;12.68;;;;;;;12.78;45.70;99294.09;5607703;31;34155;-57
2022/03/30 04:56:20;;;;;;;20.92;12.63;;;;;;;12.69;45.86;99297.59;5601608;31;33825;-56
2022/03/30 04:59:22;;;;;;;20.20;12.40;;;;;;;12.55;46.39;99297.00;5606051;31;34120;-57
2022/03/30 05:02:26;;;;;;;24.05;12.23;;;;;;;12.51;46.63;99304.09;5602616;31;33769;-56
2022/03/30 05:05:29;;;;;;;19.90;12.82;;;;;;;12.58;46.67;99301.75;5597240;31;33639;-57
2022/03/30 05:08:31;;;;;;;24.63;13.32;;;;;;;12.60;46.67;99309.47;5604505;31;33998;-57
2022/03/30 05:11:33;;;;;;;21.80;12.50;;;;;;;12.64;46.41;99316.56;5622085;31;33749;-57
2022/03/30 05:14:36;;;;;;;20.37;12.88;;;;;;;12.72;46.44;99316.91;5610699;31;33666;-57
2022/03/30 05:17:40;;;;;;;20.12;13.13;;;;;;;12.85;45.66;99318.59;5597476;31;35024;-57
2022/03/30 05:20:43;;;;;;;21.80;13.18;;;;;;;13.03;45.56;99327.41;5570315;31;33642;-57
2022/03/30 05:23:45;;;;;;;24.17;13.38;;;;;;;12.84;45.77;99325.06;5581703;31;33559;-57
2022/03/30 05:26:48;;;;;;;21.30;13.88;;;;;;;12.76;45.84;99326.69;5575385;31;34478;-57
2022/03/30 05:29:50;;;;;;;25.35;13.65;;;;;;;12.75;45.83;99325.13;5590008;31;33637;-57
2022/03/30 05:32:53;;;;;;;24.00;13.73;;;;;;;12.80;45.68;99326.84;5588539;31;33606;-57
2022/03/30 05:35:55;;;;;;;32.15;13.30;;;;;;;12.62;45.94;99334.94;5592002;31;33715;-57
2022/03/30 05:38:57;;;;;;;24.05;13.43;;;;;;;12.61;45.87;99327.97;5588320;31;33701;-57
2022/03/30 05:41:59;;;;;;;23.77;14.57;;;;;;;12.64;45.61;99330.03;5586356;31;33693;-57
2022/03/30 05:45:04;;;;;;;40.15;16.20;;;;;;;12.66;46.60;99340.47;5598782;31;34349;-57
2022/03/30 05:48:07;;;;;;;25.70;13.57;;;;;;;12.82;46.38;99335.38;5588768;31;33666;-57
2022/03/30 05:51:10;;;;;;;28.80;13.73;;;;;;;12.84;45.93;99335.84;5588252;31;33727;-57
2022/03/30 05:54:13;;;;;;;24.23;14.93;;;;;;;12.95;45.83;99331.72;5604814;31;33670;-57
2022/03/30 05:57:16;;;;;;;23.75;14.00;;;;;;;13.02;45.51;99326.62;5602683;31;33739;-57
2022/03/30 06:00:18;;;;;;;27.25;15.02;;;;;;;13.13;45.41;99324.34;5587547;31;33535;-57
2022/03/30 06:03:21;;;;;;;19.02;13.35;;;;;;;13.07;45.90;99328.34;5599943;31;32977;-57
2022/03/30 06:06:23;;;;;;;21.25;16.67;;;;;;;13.10;45.46;99331.16;5583930;31;34257;-57
2022/03/30 06:09:33;;;;;;;24.35;13.62;;;;;;;13.12;45.41;99330.84;5587998;31;34276;-57
2022/03/30 06:12:43;;;;;;;30.20;14.55;;;;;;;13.13;45.98;99341.28;5586012;31;34913;-56
2022/03/30 06:15:45;;;;;;;23.67;14.38;;;;;;;13.27;45.63;99329.56;5588965;31;34591;-57
2022/03/30 06:18:47;;;;;;;34.35;14.63;;;;;;;13.48;45.18;99329.63;5587330;31;34192;-56
2022/03/30 06:21:50;;;;;;;28.62;14.00;;;;;;;13.61;45.07;99329.41;5602822;31;34357;-56
2022/03/30 06:24:53;;;;;;;24.50;14.93;;;;;;;13.64;44.97;99330.63;5587896;31;33890;-57
2022/03/30 06:27:57;;;;;;;27.67;15.85;;;;;;;13.86;44.29;99334.94;5587771;31;33166;-57
2022/03/30 06:31:00;;;;;;;26.92;15.05;;;;;;;13.91;44.26;99328.56;5598851;31;34270;-56
2022/03/30 06:34:03;;;;;;;27.37;15.48;;;;;;;14.04;43.31;99330.22;5591911;31;33776;-57
2022/03/30 06:37:06;;;;;;;25.92;15.13;;;;;;;13.94;43.73;99333.28;5588631;31;33733;-57
2022/03/30 06:40:11;;;;;;;24.95;16.80;;;;;;;13.91;43.83;99329.38;5580308;31;33656;-57
2022/03/30 06:43:14;;;;;;;23.52;15.20;;;;;;;13.97;43.73;99330.75;5586293;31;34590;-57
2022/03/30 06:46:18;;;;;;;27.45;15.45;;;;;;;14.05;44.63;99343.38;5588125;31;33583;-57
2022/03/30 06:49:21;;;;;;;24.80;15.70;;;;;;;14.32;42.95;99349.34;5587213;31;33311;-57
2022/03/30 06:52:24;;;;;;;23.30;14.55;;;;;;;14.47;42.67;99356.03;5576014;31;33627;-57
2022/03/30 06:55:26;;;;;;;28.33;15.52;;;;;;;14.59;42.27;99345.31;5588116;31;34285;-57
2022/03/30 06:58:28;;;;;;;27.05;15.65;;;;;;;14.53;42.02;99344.72;5587564;31;33511;-57
2022/03/30 07:01:31;;;;;;;27.77;15.40;;;;;;;14.63;42.58;99342.75;5587951;31;33564;-56
2022/03/30 07:04:35;;;;;;;25.05;15.57;;;;;;;14.46;41.72;99343.66;5588393;31;33604;-57
2022/03/30 07:10:59;;;;;;;21.92;14.57;;;;;;;14.77;40.39;99335.94;5571943;31;34262;-57
2022/03/30 07:14:01;;;;;;;24.65;15.75;;;;;;;14.80;40.26;99348.78;5578670;31;34258;-57
2022/03/30 07:17:04;;;;;;;21.48;15.13;;;;;;;14.90;41.33;99347.56;5577839;31;33610;-57
2022/03/30 07:20:10;;;;;;;21.10;14.35;;;;;;;14.89;41.19;99350.56;5579165;31;33355;-57
2022/03/30 07:23:14;;;;;;;22.05;14.77;;;;;;;14.77;41.61;99352.13;5587187;31;34324;-57
2022/03/30 07:26:16;;;;;;;26.67;15.55;;;;;;;14.83;41.59;99343.81;5570714;31;34412;-57
2022/03/30 07:29:24;;;;;;;23.38;14.63;;;;;;;15.05;41.46;99343.41;5589127;31;33770;-57
2022/03/30 07:32:26;;;;;;;24.95;14.65;;;;;;;15.26;40.82;99343.31;5585693;31;33619;-57
2022/03/30 07:35:32;;;;;;;28.17;17.17;;;;;;;15.26;41.37;99341.44;5587935;31;34394;-57
2022/03/30 07:38:34;;;;;;;29.67;16.20;;;;;;;15.27;41.78;99340.31;5577039;31;33592;-57
2022/03/30 07:41:37;;;;;;;26.98;16.83;;;;;;;15.22;43.38;99326.22;5586432;31;34985;-57
2022/03/30 07:44:39;;;;;;;27.83;17.08;;;;;;;15.34;43.08;99325.47;5594359;31;33521;-57
2022/03/30 07:47:42;;;;;;;29.33;16.23;;;;;;;15.59;42.50;99328.94;5576929;31;33592;-57
2022/03/30 07:50:44;;;;;;;25.60;17.85;;;;;;;15.85;42.29;99320.47;5586352;31;33663;-57
2022/03/30 07:53:47;;;;;;;26.65;16.60;;;;;;;15.88;41.92;99328.69;5604638;31;33225;-57
2022/03/30 07:56:49;;;;;;;27.27;16.35;;;;;;;15.90;42.49;99331.84;5586355;31;33647;-57
2022/03/30 07:59:55;;;;;;;26.80;17.23;;;;;;;15.93;42.66;99343.91;5582992;31;33648;-57
2022/03/30 08:02:58;;;;;;;22.95;16.30;;;;;;;15.80;43.13;99339.66;5592719;31;34274;-57
2022/03/30 08:06:02;;;;;;;25.70;15.77;;;;;;;15.80;43.41;99347.75;5597072;31;34430;-57
2022/03/30 08:09:04;;;;;;;30.15;16.52;;;;;;;15.98;42.49;99347.13;5586534;31;32180;-57
2022/03/30 08:12:07;;;;;;;28.40;16.73;;;;;;;16.04;42.83;99349.62;5589182;31;33594;-57
2022/03/30 08:15:11;;;;;;;25.17;15.98;;;;;;;16.08;42.79;99342.38;5593862;31;33612;-57
2022/03/30 08:18:14;;;;;;;24.67;16.52;;;;;;;16.28;42.37;99348.75;5584270;31;34009;-57
2022/03/30 08:24:39;;;;;;;28.00;15.30;;;;;;;16.10;42.69;99350.97;5586736;31;33751;-57
2022/03/30 08:27:43;;;;;;;24.63;16.95;;;;;;;16.27;42.47;99353.37;5584518;31;32031;-57
2022/03/30 08:30:48;;;;;;;23.67;15.40;;;;;;;16.43;41.99;99353.44;5586873;31;33939;-57
2022/03/30 08:33:50;;;;;;;31.45;16.35;;;;;;;16.49;42.66;99356.69;5585362;31;34270;-57
2022/03/30 08:36:53;;;;;;;21.40;14.77;;;;;;;16.60;41.42;99360.47;5592976;31;33995;-57
2022/03/30 08:39:55;;;;;;;36.97;16.70;;;;;;;16.72;41.23;99357.72;5589251;31;33640;-57
2022/03/30 08:42:57;;;;;;;40.70;16.05;;;;;;;16.55;41.25;99360.72;5590989;31;32380;-57
2022/03/30 08:46:00;;;;;;;30.23;16.20;;;;;;;16.67;41.37;99357.97;5593967;31;34218;-57
2022/03/30 08:49:03;;;;;;;31.17;17.05;;;;;;;16.82;41.31;99362.66;5591553;31;33718;-57
2022/03/30 08:52:08;;;;;;;33.83;15.48;;;;;;;17.04;40.51;99366.69;5587146;31;33608;-57
2022/03/30 08:55:11;;;;;;;36.00;16.85;;;;;;;16.94;41.92;99369.13;5590472;31;33598;-57
2022/03/30 08:58:13;;;;;;;25.25;17.10;;;;;;;16.98;40.81;99368.09;5590349;31;33356;-57
2022/03/30 09:01:16;;;;;;;27.95;15.43;;;;;;;17.06;40.28;99369.84;5588628;31;33226;-57
2022/03/30 09:04:19;;;;;;;29.80;16.60;;;;;;;17.17;40.78;99359.28;5585244;31;34398;-57
2022/03/30 09:07:22;;;;;;;36.78;17.37;;;;;;;17.23;39.82;99357.88;5590607;31;33747;-57
2022/03/30 09:10:32;;;;;;;21.12;15.93;;;;;;;17.03;39.92;99361.63;5583370;31;33168;-57
2022/03/30 09:13:35;;;;;;;27.33;17.27;;;;;;;17.08;40.37;99345.13;5576308;31;33742;-58
2022/03/30 09:16:44;;;;;;;24.77;17.15;;;;;;;17.18;39.95;99349.22;5587836;31;34326;-58
2022/03/30 09:19:51;;;;;;;33.05;17.50;;;;;;;17.29;39.30;99344.87;5597734;31;33635;-58
2022/03/30 09:22:55;;;;;;;33.17;16.70;;;;;;;17.21;39.30;99343.91;5584724;31;33334;-57
2022/03/30 09:26:17;;;;;;;24.92;16.45;;;;;;;17.17;39.78;99343.03;5584996;31;32251;-57
2022/03/30 09:29:24;;;;;;;27.83;17.62;;;;;;;17.18;40.53;99339.19;5590136;31;33708;-58
2022/03/30 09:32:49;;;;;;;36.55;17.75;;;;;;;17.35;40.69;99346.97;5585031;31;33799;-57
2022/03/30 09:35:51;;;;;;;84.82;20.20;;;;;;;17.36;38.93;99334.22;5588247;31;34395;-57
2022/03/30 09:38:53;;;;;;;37.67;18.48;;;;;;;17.32;39.32;99338.75;5569715;31;34357;-57
2022/03/30 09:41:58;;;;;;;41.33;19.52;;;;;;;17.28;39.55;99337.87;5581049;31;34325;-57
2022/03/30 09:45:01;;;;;;;27.17;17.07;;;;;;;17.29;38.97;99334.81;5591451;31;33729;-58
2022/03/30 09:48:13;;;;;;;28.25;17.87;;;;;;;17.38;38.90;99330.03;5589221;31;33769;-57
2022/03/30 09:51:18;;;;;;;27.95;17.35;;;;;;;17.25;38.14;99331.25;5586484;31;33714;-57
2022/03/30 09:54:39;;;;;;;25.67;16.70;;;;;;;17.18;38.51;99317.50;5596712;31;34376;-57
2022/03/30 09:57:42;;;;;;;30.62;17.52;;;;;;;17.26;39.55;99321.97;5578948;31;34121;-57
2022/03/30 10:00:49;;;;;;;29.05;16.62;;;;;;;17.16;39.82;99317.09;5588360;31;33627;-57
2022/03/30 10:04:00;;;;;;;25.48;17.30;;;;;;;17.21;40.62;99313.31;5588513;31;33710;-57
2022/03/30 10:07:03;;;;;;;29.75;16.27;;;;;;;17.14;40.42;99305.81;5580412;31;34308;-57
2022/03/30 10:10:08;;;;;;;24.73;16.23;;;;;;;17.17;40.51;99305.13;5582213;31;33695;-57
2022/03/30 10:13:11;;;;;;;26.10;15.38;;;;;;;17.18;40.59;99298.56;5578079;31;33635;-57
2022/03/30 10:16:17;;;;;;;23.42;15.38;;;;;;;17.25;40.46;99306.87;5600871;31;33852;-57
2022/03/30 10:19:19;;;;;;;25.98;15.50;;;;;;;17.36;40.33;99307.91;5580723;31;34305;-58
2022/03/30 10:22:33;;;;;;;23.55;15.27;;;;;;;17.38;42.19;99302.94;5574938;31;33901;-58
2022/03/30 10:25:50;;;;;;;23.55;15.80;;;;;;;17.46;40.38;99305.81;5592483;31;33943;-57
2022/03/30 10:29:00;;;;;;;27.48;15.55;;;;;;;17.41;39.78;99304.12;5589836;31;33754;-57
2022/03/30 10:32:13;;;;;;;22.67;15.27;;;;;;;17.40;40.00;99299.06;5596676;31;32118;-57
2022/03/30 10:35:16;;;;;;;22.37;14.90;;;;;;;17.29;40.32;99296.91;5596832;31;33808;-57
2022/03/30 10:38:18;;;;;;;26.17;14.98;;;;;;;17.28;40.74;99284.47;5603297;31;34475;-57
2022/03/30 10:41:46;;;;;;;21.55;13.85;;;;;;;17.32;40.84;99290.00;5604522;31;33692;-57
2022/03/30 10:44:57;;;;;;;21.15;13.62;;;;;;;17.34;41.06;99282.31;5588370;31;32995;-57
2022/03/30 10:48:20;;;;;;;23.58;13.93;;;;;;;17.46;41.29;99281.41;5590246;31;33781;-57
2022/03/30 10:51:22;;;;;;;23.12;13.60;;;;;;;17.69;41.06;99274.19;5586802;31;34286;-57
2022/03/30 10:54:32;;;;;;;21.50;13.00;;;;;;;17.79;40.50;99275.59;5586594;31;34264;-57
2022/03/30 10:57:53;;;;;;;21.98;13.40;;;;;;;17.62;40.67;99272.13;5586398;31;34361;-57
2022/03/30 11:01:19;;;;;;;24.58;14.40;;;;;;;17.50;40.97;99260.59;5581740;31;33737;-57
2022/03/30 11:04:24;;;;;;;19.52;13.77;;;;;;;17.60;40.89;99263.53;5576395;31;33676;-57
2022/03/30 11:07:30;;;;;;;26.62;14.23;;;;;;;17.71;39.88;99263.75;5602361;31;33736;-57
2022/03/30 11:10:48;;;;;;;18.60;12.87;;;;;;;17.70;40.07;99256.78;5599284;31;33781;-57
2022/03/30 11:14:24;;;;;;;19.12;11.88;;;;;;;17.73;39.78;99247.94;5608047;31;33478;-57
2022/03/30 11:17:32;;;;;;;17.30;12.23;;;;;;;17.80;39.41;99253.53;5592971;31;33913;-58
2022/03/30 11:20:34;;;;;;;18.48;13.30;;;;;;;18.04;41.03;99247.03;5586984;31;33590;-57
2022/03/30 11:23:39;;;;;;;18.10;12.20;;;;;;;18.23;39.91;99238.09;5586956;31;33898;-57
2022/03/30 11:26:47;;;;;;;21.87;13.20;;;;;;;18.21;39.80;99234.19;5567883;32;33614;-57
2022/03/30 11:29:52;;;;;;;18.20;12.95;;;;;;;18.03;39.96;99233.84;5568322;32;33931;-58
2022/03/30 11:33:01;;;;;;;26.13;13.17;;;;;;;18.05;40.07;99231.56;5585868;31;33730;-57
2022/03/30 11:36:03;;;;;;;22.50;12.95;;;;;;;18.08;40.15;99223.50;5589039;31;33747;-58
2022/03/30 11:39:06;;;;;;;16.73;12.50;;;;;;;18.11;39.33;99215.78;5585196;31;33736;-57
2022/03/30 11:42:09;;;;;;;18.92;12.70;;;;;;;18.05;39.21;99218.03;5586249;31;33647;-57
2022/03/30 11:45:14;;;;;;;15.73;11.45;;;;;;;18.00;39.13;99218.28;5586544;31;33753;-57
2022/03/30 11:48:17;;;;;;;21.60;12.50;;;;;;;18.22;40.62;99209.44;5584647;31;34296;-58
2022/03/30 11:51:25;;;;;;;19.75;13.52;;;;;;;18.06;38.36;99206.81;5584415;31;33788;-57
2022/03/30 11:54:28;;;;;;;20.00;13.07;;;;;;;18.07;38.84;99200.22;5584541;31;33712;-57
2022/03/30 11:57:30;;;;;;;23.23;12.48;;;;;;;17.92;39.36;99198.41;5586504;31;34423;-57
2022/03/30 12:00:33;;;;;;;18.80;12.02;;;;;;;17.79;39.13;99203.19;5588697;31;33628;-57
2022/03/30 12:03:37;;;;;;;19.08;12.10;;;;;;;17.81;39.84;99192.78;5604083;31;33171;-58
2022/03/30 12:06:46;;;;;;;19.42;11.23;;;;;;;17.89;40.28;99187.50;5605175;31;34377;-57
2022/03/30 12:09:53;;;;;;;19.02;12.40;;;;;;;17.95;39.92;99191.47;5604639;31;34339;-57
2022/03/30 12:12:55;;;;;;;18.58;11.80;;;;;;;18.09;39.58;99186.31;5587170;31;33730;-57
2022/03/30 12:16:11;;;;;;;18.55;11.25;;;;;;;17.94;39.05;99182.53;5586813;31;34343;-58
2022/03/30 12:19:16;;;;;;;17.98;12.10;;;;;;;17.98;38.74;99185.31;5589348;31;34958;-57
2022/03/30 12:22:19;;;;;;;14.65;12.10;;;;;;;17.75;39.97;99175.19;5599475;31;33828;-57
2022/03/30 12:25:21;;;;;;;15.63;11.80;;;;;;;17.59;39.35;99169.06;5586013;31;34041;-58
2022/03/30 12:28:31;;;;;;;19.98;11.98;;;;;;;17.55;40.15;99173.62;5584400;31;33780;-57
2022/03/30 12:31:34;;;;;;;21.95;12.63;;;;;;;17.57;40.21;99165.91;5586863;31;33661;-57
2022/03/30 12:34:39;;;;;;;19.48;12.48;;;;;;;17.46;39.68;99160.28;5588330;31;33771;-57
2022/03/30 12:37:45;;;;;;;23.85;13.60;;;;;;;17.51;40.08;99161.91;5588517;31;33732;-58
2022/03/30 12:40:53;;;;;;;19.75;13.02;;;;;;;17.57;39.69;99158.56;5586645;31;33674;-57
2022/03/30 12:44:02;;;;;;;22.98;12.37;;;;;;;17.48;39.61;99154.50;5589443;31;33405;-57
2022/03/30 12:47:13;;;;;;;24.05;13.15;;;;;;;17.36;40.29;99155.44;5589401;31;33718;-58
2022/03/30 12:50:19;;;;;;;22.02;12.95;;;;;;;17.30;40.57;99146.00;5589560;31;33739;-57
2022/03/30 12:53:36;;;;;;;19.17;12.27;;;;;;;17.35;40.14;99143.81;5589324;31;34475;-57
2022/03/30 12:56:45;;;;;;;21.30;13.25;;;;;;;17.42;39.79;99135.03;5589416;31;33762;-57
2022/03/30 12:59:49;;;;;;;22.13;13.62;;;;;;;17.42;39.29;99131.53;5588279;31;33639;-57
2022/03/30 13:03:24;;;;;;;19.00;13.55;;;;;;;17.33;39.81;99126.34;5598316;31;33702;-57
2022/03/30 13:06:27;;;;;;;19.00;13.53;;;;;;;17.34;39.29;99128.69;5577032;31;33634;-57
2022/03/30 13:09:29;;;;;;;20.35;13.45;;;;;;;17.40;39.27;99123.78;5600300;31;33655;-57
2022/03/30 13:12:43;;;;;;;20.10;13.50;;;;;;;17.30;39.08;99121.62;5607751;31;34335;-57
2022/03/30 13:15:46;;;;;;;27.15;13.10;;;;;;;17.31;39.12;99120.47;5598062;31;33664;-57
2022/03/30 13:19:11;;;;;;;17.20;11.68;;;;;;;17.16;40.44;99114.00;5589314;31;34364;-58
2022/03/30 13:22:13;;;;;;;21.37;10.85;;;;;;;17.36;40.90;99114.78;5591179;31;33598;-57
2022/03/30 13:25:33;;;;;;;15.57;11.52;;;;;;;17.38;39.22;99112.50;5608978;31;34462;-57
2022/03/30 13:28:37;;;;;;;19.95;10.23;;;;;;;17.43;39.09;99104.09;5590305;31;35069;-57
2022/03/30 13:31:46;;;;;;;18.92;11.82;;;;;;;17.51;39.19;99102.31;5603176;31;33646;-57
2022/03/30 13:34:48;;;;;;;19.58;11.27;;;;;;;17.40;39.40;99095.91;5572532;31;33137;-57
2022/03/30 13:37:51;;;;;;;26.27;11.52;;;;;;;17.28;39.52;99094.09;5582622;31;33803;-57
2022/03/30 13:40:54;;;;;;;16.52;10.95;;;;;;;17.22;40.13;99088.22;5592460;31;33328;-57
2022/03/30 13:43:57;;;;;;;31.50;12.00;;;;;;;17.21;39.34;99080.44;5594626;31;34343;-57
2022/03/30 13:46:59;;;;;;;21.77;11.30;;;;;;;17.41;40.09;99084.69;5592266;31;33772;-57
2022/03/30 13:50:03;;;;;;;17.55;11.02;;;;;;;17.28;40.08;99083.28;5588620;31;33402;-57
2022/03/30 13:53:07;;;;;;;20.42;10.75;;;;;;;17.24;40.10;99088.63;5584357;31;33733;-56
2022/03/30 13:56:12;;;;;;;15.18;10.48;;;;;;;17.28;40.22;99084.06;5590664;31;34287;-57
2022/03/30 13:59:14;;;;;;;22.65;9.85;;;;;;;17.23;40.31;99084.34;5588418;31;34342;-57
2022/03/30 14:02:16;;;;;;;20.92;10.35;;;;;;;17.18;41.60;99078.44;5587421;31;33756;-58
2022/03/30 14:05:19;;;;;;;16.98;10.18;;;;;;;17.19;42.06;99075.38;5597000;31;34073;-57
2022/03/30 14:08:22;;;;;;;60.30;10.68;;;;;;;17.32;42.33;99076.81;5587294;31;33409;-57
2022/03/30 14:11:24;;;;;;;28.48;8.82;;;;;;;17.35;42.69;99069.88;5581173;31;33626;-57
2022/03/30 14:14:30;;;;;;;28.23;9.50;;;;;;;17.23;43.08;99070.81;5574983;31;34476;-57
2022/03/30 14:17:33;;;;;;;21.27;9.27;;;;;;;17.23;43.54;99072.75;5576342;31;34282;-57
2022/03/30 14:20:38;;;;;;;30.37;9.32;;;;;;;17.16;43.42;99067.19;5573260;31;33651;-57
2022/03/30 14:23:41;;;;;;;19.52;8.82;;;;;;;17.04;44.10;99071.56;5600606;31;34407;-57
2022/03/30 14:26:43;;;;;;;15.80;8.60;;;;;;;17.11;43.42;99071.72;5590034;31;34478;-57
2022/03/30 14:29:45;;;;;;;16.20;11.05;;;;;;;17.13;45.04;99063.25;5601854;31;33622;-57
2022/03/30 14:32:47;;;;;;;14.07;8.57;;;;;;;17.03;43.48;99064.59;5585712;31;34296;-57
2022/03/30 14:35:50;;;;;;;20.52;9.48;;;;;;;16.88;43.85;99070.84;5592296;31;33726;-57
2022/03/30 14:38:53;;;;;;;19.90;9.52;;;;;;;16.83;44.04;99071.91;5591312;31;33838;-57
2022/03/30 14:41:55;;;;;;;17.70;8.85;;;;;;;16.86;43.75;99065.78;5588894;31;34505;-57
2022/03/30 14:44:57;;;;;;;19.02;9.75;;;;;;;16.82;43.74;99073.06;5582907;31;33759;-57
2022/03/30 14:48:00;;;;;;;16.73;8.68;;;;;;;16.77;45.23;99065.19;5577242;31;33846;-57
2022/03/30 14:51:02;;;;;;;18.23;8.23;;;;;;;16.81;44.51;99063.34;5553632;32;34344;-57
2022/03/30 14:54:05;;;;;;;26.87;9.00;;;;;;;16.97;44.53;99070.66;5569045;32;34391;-57
2022/03/30 14:57:08;;;;;;;14.80;8.40;;;;;;;16.91;44.50;99054.69;5569113;32;33737;-57
2022/03/30 15:00:11;;;;;;;33.38;8.70;;;;;;;16.77;44.94;99059.00;5569159;32;33809;-57
2022/03/30 15:03:13;;;;;;;16.23;8.10;;;;;;;16.78;46.69;99050.53;5568827;32;34569;-57
2022/03/30 15:06:18;;;;;;;18.23;9.23;;;;;;;16.84;45.31;99051.81;5568680;32;33655;-57
2022/03/30 15:09:20;;;;;;;17.27;9.20;;;;;;;16.83;45.34;99054.91;5568586;32;33675;-57
2022/03/30 15:12:23;;;;;;;19.50;8.13;;;;;;;16.80;45.21;99045.56;5569077;32;33794;-57
2022/03/30 15:15:25;;;;;;;14.68;7.82;;;;;;;16.71;45.66;99052.28;5568854;32;33757;-57
2022/03/30 15:18:28;;;;;;;21.33;8.43;;;;;;;16.70;45.62;99053.41;5568989;32;34417;-57
2022/03/30 15:21:31;;;;;;;31.20;9.55;;;;;;;16.82;46.07;99050.59;5568444;32;33778;-57
2022/03/30 15:24:34;;;;;;;18.62;8.30;;;;;;;16.78;45.56;99039.69;5568806;32;33949;-57
2022/03/30 15:27:37;;;;;;;20.35;8.68;;;;;;;16.81;45.76;99041.69;5568630;32;33245;-57
2022/03/30 15:30:40;;;;;;;15.30;8.65;;;;;;;16.80;46.04;99039.38;5568799;32;33730;-57
2022/03/30 15:33:43;;;;;;;15.07;8.68;;;;;;;16.77;45.58;99035.44;5568633;32;33696;-57
